Map

Track Data

SID SEASON NUMBER BASIN SUBBASIN NAME ISO_TIME NATURE LAT LON WMO_WIND WMO_PRES WMO_AGENCY TRACK_TYPE DIST2LAND LANDFALL IFLAG USA_AGENCY USA_ATCF_ID USA_LAT USA_LON USA_RECORD USA_STATUS USA_WIND USA_PRES USA_SSHS USA_R34_NE USA_R34_SE USA_R34_SW USA_R34_NW USA_R50_NE USA_R50_SE USA_R50_SW USA_R50_NW USA_R64_NE USA_R64_SE USA_R64_SW USA_R64_NW USA_POCI USA_ROCI USA_RMW USA_EYE TOKYO_LAT TOKYO_LON TOKYO_GRADE TOKYO_WIND TOKYO_PRES TOKYO_R50_DIR TOKYO_R50_LONG TOKYO_R50_SHORT TOKYO_R30_DIR TOKYO_R30_LONG TOKYO_R30_SHORT TOKYO_LAND CMA_LAT CMA_LON CMA_CAT CMA_WIND CMA_PRES HKO_LAT HKO_LON HKO_CAT HKO_WIND HKO_PRES NEWDELHI_LAT NEWDELHI_LON NEWDELHI_GRADE NEWDELHI_WIND NEWDELHI_PRES NEWDELHI_CI NEWDELHI_DP NEWDELHI_POCI REUNION_LAT REUNION_LON REUNION_TYPE REUNION_WIND REUNION_PRES REUNION_TNUM REUNION_CI REUNION_RMW REUNION_R34_NE REUNION_R34_SE REUNION_R34_SW REUNION_R34_NW REUNION_R50_NE REUNION_R50_SE REUNION_R50_SW REUNION_R50_NW REUNION_R64_NE REUNION_R64_SE REUNION_R64_SW REUNION_R64_NW BOM_LAT BOM_LON BOM_TYPE BOM_WIND BOM_PRES BOM_TNUM BOM_CI BOM_RMW BOM_R34_NE BOM_R34_SE BOM_R34_SW BOM_R34_NW BOM_R50_NE BOM_R50_SE BOM_R50_SW BOM_R50_NW BOM_R64_NE BOM_R64_SE BOM_R64_SW BOM_R64_NW BOM_ROCI BOM_POCI BOM_EYE BOM_POS_METHOD BOM_PRES_METHOD NADI_LAT NADI_LON NADI_CAT NADI_WIND NADI_PRES WELLINGTON_LAT WELLINGTON_LON WELLINGTON_WIND WELLINGTON_PRES DS824_LAT DS824_LON DS824_STAGE DS824_WIND DS824_PRES TD9636_LAT TD9636_LON TD9636_STAGE TD9636_WIND TD9636_PRES TD9635_LAT TD9635_LON TD9635_WIND TD9635_PRES TD9635_ROCI NEUMANN_LAT NEUMANN_LON NEUMANN_CLASS NEUMANN_WIND NEUMANN_PRES MLC_LAT MLC_LON MLC_CLASS MLC_WIND MLC_PRES USA_GUST BOM_GUST BOM_GUST_PER REUNION_GUST REUNION_GUST_PER USA_SEAHGT USA_SEARAD_NE USA_SEARAD_SE USA_SEARAD_SW USA_SEARAD_NW STORM_SPEED STORM_DIR
2021257N10348 2021 73 NA NA PETER 2021-09-13 12:00:00 NR 10.0000 -11.8000 PROVISIONAL 0 0 O_____________ nhc_working_bt AL162021 10.0000 -11.8000 DB 20 1010 -3 1012 120 80 20 269
2021257N10348 2021 73 NA NA PETER 2021-09-13 15:00:00 NR 9.99057 -12.7926 PROVISIONAL 0 0 P_____________ AL162021 9.99057 -12.7926 DB 20 1010 -3 1011 120 80 20 270
2021257N10348 2021 73 NA NA PETER 2021-09-13 18:00:00 NR 10.0000 -13.8000 PROVISIONAL 0 0 O_____________ nhc_working_bt AL162021 10.0000 -13.8000 DB 20 1010 -3 1011 120 80 20 271
2021257N10348 2021 73 NA NA PETER 2021-09-13 21:00:00 NR 10.0422 -14.8350 PROVISIONAL 39 39 P_____________ AL162021 10.0422 -14.8350 DB 20 1010 -3 1011 120 80 21 273
2021257N10348 2021 73 NA NA PETER 2021-09-14 00:00:00 NR 10.1000 -15.9000 PROVISIONAL 125 125 O_____________ nhc_working_bt AL162021 10.1000 -15.9000 DB 20 1010 -3 1011 120 80 22 273
2021257N10348 2021 73 NA NA PETER 2021-09-14 03:00:00 NR 10.1575 -17.0224 PROVISIONAL 200 200 P_____________ AL162021 10.1575 -17.0224 DB 22 1009 -3 1011 120 75 22 273
2021257N10348 2021 73 NA NA PETER 2021-09-14 06:00:00 NR 10.2000 -18.1000 PROVISIONAL 281 281 O_____________ nhc_working_bt AL162021 10.2000 -18.1000 DB 25 1008 -3 1011 120 70 20 271
2021257N10348 2021 73 NA NA PETER 2021-09-14 09:00:00 NR 10.2071 -19.0450 PROVISIONAL 343 343 P_____________ AL162021 10.2071 -19.0450 DB 25 1008 -3 1011 120 70 18 270
2021257N10348 2021 73 NA NA PETER 2021-09-14 12:00:00 NR 10.2000 -19.9000 PROVISIONAL 418 418 O_____________ nhc_working_bt AL162021 10.2000 -19.9000 DB 25 1009 -3 1011 120 70 16 269
2021257N10348 2021 73 NA NA PETER 2021-09-14 15:00:00 NR 10.1922 -20.7150 PROVISIONAL 491 491 P_____________ AL162021 10.1922 -20.7150 DB 25 1009 -3 1011 120 70 16 270
2021257N10348 2021 73 NA NA PETER 2021-09-14 18:00:00 NR 10.2000 -21.5000 PROVISIONAL 568 568 O_____________ nhc_working_bt AL162021 10.2000 -21.5000 DB 25 1009 -3 1011 120 70 16 272
2021257N10348 2021 73 NA NA PETER 2021-09-14 21:00:00 NR 10.2499 -22.3074 PROVISIONAL 648 648 P_____________ AL162021 10.2499 -22.3074 DB 25 1009 -3 1011 120 70 16 274
2021257N10348 2021 73 NA NA PETER 2021-09-15 00:00:00 NR 10.3000 -23.1000 PROVISIONAL 726 726 O_____________ nhc_working_bt AL162021 10.3000 -23.1000 DB 25 1009 -3 1011 120 70 15 272
2021257N10348 2021 73 NA NA PETER 2021-09-15 03:00:00 NR 10.2998 -23.8576 PROVISIONAL 809 809 P_____________ AL162021 10.2998 -23.8576 DB 27 1009 -3 1011 120 55 15 270
2021257N10348 2021 73 NA NA PETER 2021-09-15 06:00:00 NR 10.3000 -24.6000 PROVISIONAL 882 882 O_____________ nhc_working_bt AL162021 10.3000 -24.6000 DB 30 1009 -3 1011 120 40 14 270
2021257N10348 2021 73 NA NA PETER 2021-09-15 09:00:00 NR 10.2891 -25.2682 PROVISIONAL 956 956 P_____________ AL162021 10.2891 -25.2682 DB 30 1009 -3 1011 120 40 15 274
2021257N10348 2021 73 NA NA PETER 2021-09-15 12:00:00 NR 10.4000 -26.1000 PROVISIONAL 1038 1038 O_____________ nhc_working_bt AL162021 10.4000 -26.1000 DB 30 1009 -3 1011 120 40 21 284
2021257N10348 2021 73 NA NA PETER 2021-09-15 15:00:00 NR 10.7851 -27.3018 PROVISIONAL 1149 1149 P_____________ AL162021 10.7851 -27.3018 DB 27 1010 -3 1011 120 40 27 287
2021257N10348 2021 73 NA NA PETER 2021-09-15 18:00:00 NR 11.2000 -28.7000 PROVISIONAL 1275 1275 O_____________ nhc_working_bt AL162021 11.2000 -28.7000 DB 25 1011 -3 1012 120 40 40 28 283
2021257N10348 2021 73 NA NA PETER 2021-09-15 21:00:00 NR 11.4324 -30.1149 PROVISIONAL 1414 1414 P_____________ AL162021 11.4324 -30.1149 DB 25 1011 -3 1012 120 50 28 276
2021257N10348 2021 73 NA NA PETER 2021-09-16 00:00:00 NR 11.5000 -31.5000 PROVISIONAL 1558 1558 O_____________ nhc_working_bt AL162021 11.5000 -31.5000 DB 25 1011 -3 1012 120 60 35 26 269
2021257N10348 2021 73 NA NA PETER 2021-09-16 03:00:00 NR 11.3719 -32.7531 PROVISIONAL 1698 1698 P_____________ AL162021 11.3719 -32.7531 DB 25 1011 -3 1012 120 60 24 263
2021257N10348 2021 73 NA NA PETER 2021-09-16 06:00:00 NR 11.2000 -33.9000 PROVISIONAL 1709 1659 O_____________ nhc_working_bt AL162021 11.2000 -33.9000 DB 25 1011 -3 1013 120 60 35 22 264
2021257N10348 2021 73 NA NA PETER 2021-09-16 09:00:00 NR 11.1320 -34.9802 PROVISIONAL 1656 1636 P_____________ AL162021 11.1320 -34.9802 DB 25 1011 -3 1014 120 60 21 270
2021257N10348 2021 73 NA NA PETER 2021-09-16 12:00:00 NR 11.2000 -36.0000 PROVISIONAL 1634 1629 O_____________ nhc_working_bt AL162021 11.2000 -36.0000 DB 25 1012 -3 1015 120 60 35 20 280
2021257N10348 2021 73 NA NA PETER 2021-09-16 15:00:00 NR 11.4921 -37.0068 PROVISIONAL 1642 1638 P_____________ AL162021 11.4921 -37.0068 DB 25 1012 -3 1015 120 60 21 287
2021257N10348 2021 73 NA NA PETER 2021-09-16 18:00:00 NR 11.8000 -38.0000 PROVISIONAL 1659 1599 O_____________ nhc_working_bt AL162021 11.8000 -38.0000 DB 25 1012 -3 1015 120 60 20 281
2021257N10348 2021 73 NA NA PETER 2021-09-16 21:00:00 NR 11.8873 -39.0154 PROVISIONAL 1599 1516 P_____________ AL162021 11.8873 -39.0154 DB 25 1012 -3 1015 120 60 20 273
2021257N10348 2021 73 NA NA PETER 2021-09-17 00:00:00 NR 11.9000 -40.0000 PROVISIONAL 1507 1426 O_____________ nhc_working_bt AL162021 11.9000 -40.0000 DB 25 1012 -3 1015 120 60 19 271
2021257N10348 2021 73 NA NA PETER 2021-09-17 03:00:00 NR 11.9196 -40.9153 PROVISIONAL 1426 1355 P_____________ AL162021 11.9196 -40.9153 DB 25 1011 -3 1014 120 60 18 273
2021257N10348 2021 73 NA NA PETER 2021-09-17 06:00:00 NR 12.0000 -41.8000 PROVISIONAL 1355 1295 O_____________ nhc_working_bt AL162021 12.0000 -41.8000 DB 25 1010 -3 1013 120 60 18 279
2021257N10348 2021 73 NA NA PETER 2021-09-17 09:00:00 NR 12.1897 -42.7002 PROVISIONAL 1295 1248 P_____________ AL162021 12.1897 -42.7002 DB 25 1010 -3 1013 150 60 18 286
2021257N10348 2021 73 NA NA PETER 2021-09-17 12:00:00 NR 12.5000 -43.6000 PROVISIONAL 1249 1224 O_____________ nhc_working_bt AL162021 12.5000 -43.6000 DB 25 1011 -3 1014 180 60 35 19 293
2021257N10348 2021 73 NA NA PETER 2021-09-17 15:00:00 NR 12.9346 -44.4924 PROVISIONAL 1219 1207 P_____________ AL162021 12.9346 -44.4924 DB 25 1011 -3 1013 150 60 20 297
2021257N10348 2021 73 NA NA PETER 2021-09-17 18:00:00 NR 13.4000 -45.4000 PROVISIONAL 1207 1182 O_____________ nhc_working_bt AL162021 13.4000 -45.4000 DB 25 1011 -3 1013 120 60 35 20 295
2021257N10348 2021 73 NA NA PETER 2021-09-17 21:00:00 NR 13.7873 -46.3501 PROVISIONAL 1179 1155 P_____________ AL162021 13.7873 -46.3501 DB 25 1011 -3 1013 120 60 20 291
2021257N10348 2021 73 NA NA PETER 2021-09-18 00:00:00 NR 14.1000 -47.3000 PROVISIONAL 1153 1126 O_____________ nhc_working_bt AL162021 14.1000 -47.3000 DB 25 1011 -3 1013 120 60 35 19 286
2021257N10348 2021 73 NA NA PETER 2021-09-18 03:00:00 NR 14.3149 -48.2454 PROVISIONAL 1126 1105 P_____________ AL162021 14.3149 -48.2454 DB 27 1010 -3 1013 120 60 18 283
2021257N10348 2021 73 NA NA PETER 2021-09-18 06:00:00 NR 14.5000 -49.1000 PROVISIONAL 1107 1096 O_____________ nhc_working_bt AL162021 14.5000 -49.1000 DB 30 1009 -3 1013 120 60 40 16 286
2021257N10348 2021 73 NA NA PETER 2021-09-18 09:00:00 NR 14.7345 -49.7952 PROVISIONAL 1096 1093 P_____________ AL162021 14.7345 -49.7952 DB 30 1008 -3 1012 120 60 14 292
2021257N10348 2021 73 NA NA PETER 2021-09-18 12:00:00 DS 15.0000 -50.4000 PROVISIONAL 1100 1096 O_____________ nhc_working_bt AL162021 15.0000 -50.4000 LO 30 1008 -3 1012 120 60 40 13 295
2021257N10348 2021 73 NA NA PETER 2021-09-18 15:00:00 DS 15.2773 -51.0152 PROVISIONAL 1109 1105 P_____________ AL162021 15.2773 -51.0152 LO 30 1008 -3 1011 135 60 13 297
2021257N10348 2021 73 NA NA PETER 2021-09-18 18:00:00 DS 15.6000 -51.6000 PROVISIONAL 1122 1120 O_____________ nhc_working_bt AL162021 15.6000 -51.6000 LO 30 1008 -3 1011 150 60 40 13 304
2021257N10348 2021 73 NA NA PETER 2021-09-18 21:00:00 DS 15.9996 -52.1351 PROVISIONAL 1131 1103 P_____________ AL162021 15.9996 -52.1351 LO 30 1008 -3 1011 150 50 12 305
2021257N10348 2021 73 NA NA PETER 2021-09-19 00:00:00 TS 16.3000 -52.6333 PROVISIONAL 1103 1070 O_____________ nhc_working_bt AL162021 16.4000 -52.7000 TD 30 1008 -1 1011 150 40 40 12 300
2021257N10348 2021 73 NA NA PETER 2021-09-19 03:00:00 TS 16.6267 -53.2532 PROVISIONAL 1062 1034 P_____________ AL162021 16.7297 -53.3552 TD 32 1006 -1 1011 150 40 14 296
2021257N10348 2021 73 NA NA PETER 2021-09-19 06:00:00 TS 16.9311 -53.9725 PROVISIONAL 1026 987 O_____________ nhc_working_bt AL162021 17.0000 -54.1000 TS 35 1005 0 40 40 1011 150 40 45 16 290
2021257N10348 2021 73 NA NA PETER 2021-09-19 09:00:00 TS 17.1678 -54.8214 PROVISIONAL 988 947 P_____________ AL162021 17.2003 -54.9653 TS 37 1006 0 70 40 1011 150 40 17 286
2021257N10348 2021 73 NA NA PETER 2021-09-19 12:00:00 TS 17.4028 -55.6751 PROVISIONAL 943 927 O_____________ nhc_working_bt AL162021 17.4000 -55.8000 TS 40 1007 0 100 40 1011 150 40 50 16 291
2021257N10348 2021 73 NA NA PETER 2021-09-19 15:00:00 TS 17.7383 -56.3880 PROVISIONAL 927 909 P_____________ AL162021 17.6996 -56.4524 TS 40 1007 0 105 1011 150 40 14 298
2021257N10348 2021 73 NA NA PETER 2021-09-19 18:00:00 TS 18.0639 -57.0043 PROVISIONAL 908 854 O_____________ nhc_working_bt AL162021 18.0000 -57.0000 TS 40 1007 0 110 1011 150 40 50 12 90 45 12 296
2021257N10348 2021 73 NA NA PETER 2021-09-19 21:00:00 TS 18.2811 -57.5633 PROVISIONAL 844 801 P_____________ AL162021 18.2073 -57.5228 TS 42 1006 0 115 1011 135 50 12 120 11 292
2021257N10348 2021 73 NA NA PETER 2021-09-20 00:00:00 TS 18.4667 -58.0667 PROVISIONAL 791 749 O_____________ nhc_working_bt AL162021 18.4000 -58.0000 TS 45 1005 0 120 1011 120 60 45 12 150 10 294
2021257N10348 2021 73 NA NA PETER 2021-09-20 03:00:00 TS 18.6874 -58.5261 PROVISIONAL 749 697 P_____________ AL162021 18.6495 -58.4202 TS 45 1005 0 115 1011 120 60 12 165 10 296
2021257N10348 2021 73 NA NA PETER 2021-09-20 06:00:00 TS 18.9068 -59.0194 PROVISIONAL 697 636 O_____________ nhc_working_bt AL162021 18.9000 -58.9000 TS 45 1005 0 110 1011 120 60 55 12 180 11 291
2021257N10348 2021 73 NA NA PETER 2021-09-20 09:00:00 TS 19.0982 -59.6564 PROVISIONAL 626 566 P_____________ AL162021 19.1004 -59.5926 TS 45 1006 0 110 1011 120 60 12 195 13 288
2021257N10348 2021 73 NA NA PETER 2021-09-20 12:00:00 TS 19.2884 -60.2993 PROVISIONAL 566 519 O_____________ nhc_working_bt AL162021 19.3000 -60.3000 TS 45 1007 0 110 1011 120 60 55 12 210 60 12 291
2021257N10348 2021 73 NA NA PETER 2021-09-20 15:00:00 TS 19.5248 -60.8230 PROVISIONAL 519 474 P_____________ AL162021 19.5797 -60.8448 TS 45 1007 0 110 1011 120 60 12 210 60 10 295
2021257N10348 2021 73 NA NA PETER 2021-09-20 18:00:00 TS 19.7176 -61.2795 PROVISIONAL 474 438 O_____________ nhc_working_bt AL162021 19.8000 -61.3000 TS 45 1007 0 110 1011 120 60 55 12 210 60 9 288
2021257N10348 2021 73 NA NA PETER 2021-09-20 21:00:00 TS 19.7922 -61.6890 PROVISIONAL 438 399 P_____________ AL162021 19.8521 -61.6852 TS 45 1007 0 110 1011 120 60 12 180 60 8 276
2021257N10348 2021 73 NA NA PETER 2021-09-21 00:00:00 TS 19.8000 -62.1000 PROVISIONAL 399 351 O_____________ nhc_working_bt AL162021 19.8000 -62.1000 TS 45 1007 0 110 1012 120 60 55 12 150 60 9 269
2021257N10348 2021 73 NA NA PETER 2021-09-21 03:00:00 TS 19.7814 -62.6060 PROVISIONAL 351 305 P_____________ AL162021 19.6854 -62.7079 TS 42 1007 0 130 1012 120 60 12 150 75 9 268
2021257N10348 2021 73 NA NA PETER 2021-09-21 06:00:00 TS 19.7736 -63.1078 PROVISIONAL 305 270 O_____________ nhc_working_bt AL162021 19.6000 -63.3000 TS 40 1007 0 150 1012 120 60 55 12 150 90 9 273
2021257N10348 2021 73 NA NA PETER 2021-09-21 09:00:00 TS 19.8213 -63.5323 PROVISIONAL 270 245 P_____________ AL162021 19.6471 -63.6800 TS 37 1007 0 140 1012 120 60 12 150 105 8 282
2021257N10348 2021 73 NA NA PETER 2021-09-21 12:00:00 TS 19.9328 -63.9224 PROVISIONAL 245 231 O_____________ nhc_working_bt AL162021 19.8000 -64.0000 TS 35 1008 0 130 1012 120 60 45 12 150 120 8 292
2021257N10348 2021 73 NA NA PETER 2021-09-21 15:00:00 TS 20.1221 -64.3372 PROVISIONAL 234 227 P_____________ AL162021 20.0427 -64.4297 TS 32 1008 -1 1012 120 70 12 135 120 8 299
2021257N10348 2021 73 NA NA PETER 2021-09-21 18:00:00 TS 20.3279 -64.6928 PROVISIONAL 232 232 O_____________ nhc_working_bt AL162021 20.3000 -64.8000 TD 30 1009 -1 1012 120 80 40 12 120 120 6 302
2021257N10348 2021 73 NA NA PETER 2021-09-21 21:00:00 TS 20.4568 -64.9005 PROVISIONAL 246 243 P_____________ AL162021 20.4422 -64.9505 TD 30 1008 -1 1012 120 75 5 306
2021257N10348 2021 73 NA NA PETER 2021-09-22 00:00:00 TS 20.6000 -65.1000 PROVISIONAL 251 249 O_____________ nhc_working_bt AL162021 20.6000 -65.1000 TD 30 1008 -1 1012 120 70 6 308
2021257N10348 2021 73 NA NA PETER 2021-09-22 03:00:00 TS 20.8546 -65.4472 PROVISIONAL 280 279 P_____________ AL162021 20.9152 -65.4770 TD 30 1008 -1 1012 120 70 8 306
2021257N10348 2021 73 NA NA PETER 2021-09-22 06:00:00 TS 21.0923 -65.8328 PROVISIONAL 302 302 O_____________ nhc_working_bt AL162021 21.2000 -65.9000 TD 30 1008 -1 1012 120 70 40 12 60 8 295
2021257N10348 2021 73 NA NA PETER 2021-09-22 09:00:00 TS 21.1917 -66.2089 PROVISIONAL 313 313 P_____________ AL162021 21.2725 -66.2453 TD 30 1008 -1 1012 120 70 6 285
2021257N10348 2021 73 NA NA PETER 2021-09-22 12:00:00 TS 21.2636 -66.5016 PROVISIONAL 324 324 O_____________ nhc_working_bt AL162021 21.3000 -66.5000 TD 30 1008 -1 1012 120 70 40 4 300
2021257N10348 2021 73 NA NA PETER 2021-09-22 15:00:00 TS 21.4097 -66.6176 PROVISIONAL 335 335 P_____________ AL162021 21.4349 -66.6300 TD 30 1008 -1 1012 120 70 4 333
2021257N10348 2021 73 NA NA PETER 2021-09-22 18:00:00 TS 21.5821 -66.6751 PROVISIONAL 357 357 O_____________ nhc_working_bt AL162021 21.6000 -66.7000 TD 30 1008 -1 1012 120 70 40 4 335
2021257N10348 2021 73 NA NA PETER 2021-09-22 21:00:00 TS 21.7431 -66.7891 PROVISIONAL 369 369 P_____________ AL162021 21.7500 -66.8075 TD 30 1008 -1 1011 120 70 4 326
2021257N10348 2021 73 NA NA PETER 2021-09-23 00:00:00 TS 21.9000 -66.9000 PROVISIONAL 383 383 O_____________ nhc_working_bt AL162021 21.9000 -66.9000 TD 30 1008 -1 1011 120 70 40 3 331
2021257N10348 2021 73 NA NA PETER 2021-09-23 03:00:00 TS 22.0420 -66.9718 PROVISIONAL 385 385 P_____________ AL162021 22.0350 -66.9576 TD 27 1008 -1 1011 120 70 3 338
2021257N10348 2021 73 NA NA PETER 2021-09-23 06:00:00 DS 22.1989 -67.0286 PROVISIONAL 402 402 O_____________ nhc_working_bt AL162021 22.2000 -67.0000 LO 25 1008 -3 1011 120 70 4 343
2021257N10348 2021 73 NA NA PETER 2021-09-23 09:00:00 DS 22.3871 -67.0833 PROVISIONAL 415 415 P_____________ AL162021 22.4275 -67.0500 LO 25 1008 -3 1011 120 70 4 346
2021257N10348 2021 73 NA NA PETER 2021-09-23 12:00:00 DS 22.5983 -67.1292 PROVISIONAL 433 433 O_____________ nhc_working_bt AL162021 22.7000 -67.1000 LO 25 1009 -3 1011 120 70 5 350
2021257N10348 2021 73 NA NA PETER 2021-09-23 15:00:00 DS 22.8312 -67.1727 PROVISIONAL 447 447 P_____________ AL162021 23.0150 -67.1575 LO 25 1009 -3 1011 120 70 5 352
2021257N10348 2021 73 NA NA PETER 2021-09-23 18:00:00 DS 23.0502 -67.1993 PROVISIONAL 477 477 O_____________ nhc_working_bt AL162021 23.3000 -67.2000 LO 25 1009 -3 1011 120 70 4 355
2021257N10348 2021 73 NA NA PETER 2021-09-23 21:00:00 DS 23.2176 -67.2129 PROVISIONAL 487 487 P_____________ AL162021 23.4800 -67.2300 LO 25 1009 -3 1011 120 70 3 0
2021257N10348 2021 73 NA NA PETER 2021-09-24 00:00:00 DS 23.3568 -67.1862 PROVISIONAL 507 507 O_____________ nhc_working_bt AL162021 23.6000 -67.2000 LO 25 1009 -3 1011 120 70 3 18
2021257N10348 2021 73 NA NA PETER 2021-09-24 03:00:00 DS 23.4910 -67.1185 PROVISIONAL 521 521 P_____________ AL162021 23.7074 -67.1024 LO 25 1009 -3 1011 120 70 3 34
2021257N10348 2021 73 NA NA PETER 2021-09-24 06:00:00 NR 23.6202 -66.9873 PROVISIONAL 536 536 O_____________ nhc_working_bt AL162021 23.8000 -66.9000 DB 25 1009 -3 1011 120 70 4 49
2021257N10348 2021 73 NA NA PETER 2021-09-24 09:00:00 NR 23.7549 -66.7895 PROVISIONAL 565 565 P_____________ AL162021 23.9001 -66.5800 DB 25 1009 -3 1011 120 70 5 56
2021257N10348 2021 73 NA NA PETER 2021-09-24 12:00:00 NR 23.8925 -66.5498 PROVISIONAL 590 590 O_____________ nhc_working_bt AL162021 24.0000 -66.2000 DB 25 1009 -3 1011 120 70 5 58
2021257N10348 2021 73 NA NA PETER 2021-09-24 15:00:00 NR 24.0285 -66.3167 PROVISIONAL 610 610 P_____________ AL162021 24.0924 -65.8499 DB 25 1009 -3 1011 120 70 5 57
2021257N10348 2021 73 NA NA PETER 2021-09-24 18:00:00 NR 24.1757 -66.0709 PROVISIONAL 639 639 O_____________ nhc_working_bt AL162021 24.2000 -65.5000 DB 25 1009 -3 1011 120 70 6 55
2021257N10348 2021 73 NA NA PETER 2021-09-24 21:00:00 NR 24.3429 -65.8161 PROVISIONAL 659 659 P_____________ AL162021 24.3424 -65.1500 DB 25 1009 -3 1011 120 70 6 54
2021257N10348 2021 73 NA NA PETER 2021-09-25 00:00:00 NR 24.5219 -65.5477 PROVISIONAL 682 682 O_____________ nhc_working_bt AL162021 24.5000 -64.8000 DB 25 1009 -3 1011 120 70 6 54
2021257N10348 2021 73 NA NA PETER 2021-09-25 03:00:00 NR 24.6961 -65.2733 PROVISIONAL 705 705 P_____________ AL162021 24.6424 -64.4573 DB 25 1009 -3 1011 120 70 6 55
2021257N10348 2021 73 NA NA PETER 2021-09-25 06:00:00 NR 24.8828 -64.9769 PROVISIONAL 729 729 O_____________ nhc_working_bt AL162021 24.8000 -64.1000 DB 25 1009 -3 1011 120 70 7 56
2021257N10348 2021 73 NA NA PETER 2021-09-25 09:00:00 NR 25.0827 -64.6452 PROVISIONAL 756 756 P_____________ AL162021 24.9776 -63.6924 DB 25 1009 -3 1011 120 70 7 55
2021257N10348 2021 73 NA NA PETER 2021-09-25 12:00:00 NR 25.3104 -64.3054 PROVISIONAL 783 783 O_____________ nhc_working_bt AL162021 25.2000 -63.3000 DB 25 1009 -3 1011 120 70 8 51
2021257N10348 2021 73 NA NA PETER 2021-09-25 15:00:00 NR 25.5691 -63.9895 PROVISIONAL 821 821 P_____________ AL162021 25.4774 -62.9774 DB 25 1009 -3 1011 120 70 9 52
2021257N10348 2021 73 NA NA PETER 2021-09-25 18:00:00 NR 25.8482 -63.5396 PROVISIONAL 855 855 O_____________ nhc_working_bt AL162021 25.8000 -62.7000 DB 25 1009 -3 1011 120 70 10 55
2021257N10348 2021 73 NA NA PETER 2021-09-25 21:00:00 NR 26.1534 -63.0563 PROVISIONAL 909 909 P_____________ AL162021 26.1424 -62.4423 DB 25 1009 -3 1011 120 70 11 55
2021257N10348 2021 73 NA NA PETER 2021-09-26 00:00:00 NR 26.4888 -62.5381 PROVISIONAL 959 959 O_____________ nhc_working_bt AL162021 26.5000 -62.2000 DB 25 1009 -3 1011 120 70 12 55
2021257N10348 2021 73 NA NA PETER 2021-09-26 03:00:00 NR 26.8575 -61.9425 PROVISIONAL 1022 1022 P_____________ AL162021 26.8575 -61.9425 DB 25 1009 -3 1011 120 70 10 46
2021257N10348 2021 73 NA NA PETER 2021-09-26 06:00:00 NR 27.2000 -61.7000 PROVISIONAL 1061 1061 O_____________ nhc_working_bt AL162021 27.2000 -61.7000 DB 25 1009 -3 1011 120 70 7 32
2021257N10348 2021 73 NA NA PETER 2021-09-26 09:00:00 NR 27.4924 -61.4996 PROVISIONAL 1100 1100 P_____________ AL162021 27.4924 -61.4996 DB 25 1009 -3 1011 120 70 7 31
2021257N10348 2021 73 NA NA PETER 2021-09-26 12:00:00 NR 27.8000 -61.3000 PROVISIONAL 1138 1138 O_____________ nhc_working_bt AL162021 27.8000 -61.3000 DB 25 1009 -3 1011 120 70 8 29
2021257N10348 2021 73 NA NA PETER 2021-09-26 15:00:00 NR 28.1850 -61.0649 PROVISIONAL 1187 1187 P_____________ AL162021 28.1850 -61.0649 DB 27 1008 -3 1011 120 50 9 29
2021257N10348 2021 73 NA NA PETER 2021-09-26 18:00:00 DS 28.6000 -60.8000 PROVISIONAL 1240 1240 O_____________ nhc_working_bt AL162021 28.6000 -60.8000 LO 30 1008 -3 1011 120 30 10 31
2021257N10348 2021 73 NA NA PETER 2021-09-26 21:00:00 DS 29.0000 -60.5074 PROVISIONAL 1292 1292 P_____________ AL162021 29.0000 -60.5074 LO 27 1008 -3 1011 120 50 10 42
2021257N10348 2021 73 NA NA PETER 2021-09-27 00:00:00 NR 29.3200 -60.0600 PROVISIONAL 1339 1339 O_____________ nhc_working_bt AL162021 29.4000 -60.2000 DB 25 1009 -3 1011 120 70 9 45
2021257N10348 2021 73 NA NA PETER 2021-09-27 03:00:00 NR 29.6632 -59.7436 PROVISIONAL 1396 1396 P_____________ AL162021 29.7924 -59.9071 DB 27 1009 -3 1011 120 55 9 35
2021257N10348 2021 73 NA NA PETER 2021-09-27 06:00:00 NR 30.0375 -59.4901 PROVISIONAL 1435 1435 O_____________ nhc_working_bt AL162021 30.2000 -59.6000 DB 30 1009 -3 1011 120 40 9 28
2021257N10348 2021 73 NA NA PETER 2021-09-27 09:00:00 NR 30.4533 -59.2486 PROVISIONAL 1498 1498 P_____________ AL162021 30.6652 -59.2205 DB 30 1009 -3 1011 120 40 9 24
2021257N10348 2021 73 NA NA PETER 2021-09-27 12:00:00 NR 30.8803 -59.0560 PROVISIONAL 1505 1477 O_____________ nhc_working_bt AL162021 31.1000 -58.9000 DB 30 1009 -3 1011 120 40 8 18
2021257N10348 2021 73 NA NA PETER 2021-09-27 15:00:00 NR 31.2511 -58.9392 PROVISIONAL 1469 1438 P_____________ AL162021 31.4298 -58.7322 DB 30 1009 -3 1012 115 40 7 11
2021257N10348 2021 73 NA NA PETER 2021-09-27 18:00:00 DS 31.5851 -58.8874 PROVISIONAL 1438 1407 O_____________ nhc_working_bt AL162021 31.7000 -58.7000 LO 30 1010 -3 1014 110 40 7 3
2021257N10348 2021 73 NA NA PETER 2021-09-27 21:00:00 DS 31.9029 -58.8894 PROVISIONAL 1407 1376 P_____________ AL162021 31.9575 -58.7847 LO 30 1010 -3 1014 110 40 6 357
2021257N10348 2021 73 NA NA PETER 2021-09-28 00:00:00 DS 32.2000 -58.9000 PROVISIONAL 1376 1355 O_____________ nhc_working_bt AL162021 32.2000 -58.9000 LO 30 1010 -3 1014 110 40 5 1
2021257N10348 2021 73 NA NA PETER 2021-09-28 03:00:00 DS 32.4247 -58.8767 PROVISIONAL 1355 1338 P_____________ AL162021 32.4500 -58.9300 LO 30 1010 -3 1014 110 40 4 9
2021257N10348 2021 73 NA NA PETER 2021-09-28 06:00:00 DS 32.6302 -58.8201 PROVISIONAL 1338 1318 O_____________ nhc_working_bt AL162021 32.7000 -58.9000 LO 30 1010 -3 1014 110 40 4 17
2021257N10348 2021 73 NA NA PETER 2021-09-28 09:00:00 DS 32.8298 -58.7293 PROVISIONAL 1322 1301 P_____________ AL162021 32.9500 -58.8151 LO 30 1010 -3 1014 110 40 4 23
2021257N10348 2021 73 NA NA PETER 2021-09-28 12:00:00 DS 33.0367 -58.6132 PROVISIONAL 1305 1285 O_____________ nhc_working_bt AL162021 33.2000 -58.7000 LO 30 1010 -3 1015 110 40 5 24
2021257N10348 2021 73 NA NA PETER 2021-09-28 15:00:00 DS 33.2565 -58.5054 PROVISIONAL 1279 1263 P_____________ AL162021 33.4349 -58.6295 LO 32 1010 -3 1015 110 35 5 24
2021257N10348 2021 73 NA NA PETER 2021-09-28 18:00:00 DS 33.5249 -58.3504 PROVISIONAL 1263 1241 O_____________ nhc_working_bt AL162021 33.7000 -58.5000 LO 35 1010 -3 40 1015 110 30 7 28
2021257N10348 2021 73 NA NA PETER 2021-09-28 21:00:00 DS 33.8600 -58.1143 PROVISIONAL 1235 1210 P_____________ AL162021 34.0049 -58.2520 LO 30 1010 -3 1015 110 30 9 31
2021257N10348 2021 73 NA NA PETER 2021-09-29 00:00:00 DS 34.3000 -57.8000 PROVISIONAL 1210 1176 O_____________ nhc_working_bt AL162021 34.4000 -57.9000 LO 25 1011 -3 1015 110 30 11 29
2021257N10348 2021 73 NA NA PETER 2021-09-29 03:00:00 DS 34.8459 -57.4510 PROVISIONAL 1176 1133 P_____________ AL162021 34.8822 -57.5012 LO 25 1011 -3 1015 105 30 14 29
2021257N10348 2021 73 NA NA PETER 2021-09-29 06:00:00 DS 35.5000 -57.0000 PROVISIONAL 1133 1072 O_____________ nhc_working_bt AL162021 35.5000 -57.0000 LO 25 1011 -3 1015 100 30 16 31
2021257N10348 2021 73 NA NA PETER 2021-09-29 09:00:00 DS 36.2548 -56.4250 PROVISIONAL 1065 1013 P_____________ AL162021 36.2699 -56.3950 LO 27 1011 -3 1015 100 32 19 33
2021257N10348 2021 73 NA NA PETER 2021-09-29 12:00:00 DS 37.0560 -55.7418 PROVISIONAL 1006 961 O_____________ nhc_working_bt AL162021 37.1000 -55.7000 LO 30 1011 -3 1015 100 35 20 36
2021257N10348 2021 73 NA NA PETER 2021-09-29 15:00:00 DS 37.8382 -54.9911 PROVISIONAL 965 890 P_____________ AL162021 37.8734 -54.9624 LO 30 1011 -3 1015 100 35 20 38
2021257N10348 2021 73 NA NA PETER 2021-09-29 18:00:00 DS 38.6000 -54.2000 PROVISIONAL 890 O_____________ nhc_working_bt AL162021 38.6000 -54.2000 LO 30 1011 -3 1015 100 35 20 39

About IBTrACS Database

This database is a web-friendly format of International Best Track Archive for Climate Stewardship (IBTrACS), a global best track data archive curated by NOAA dating back to 1842.

Updated: 2021-10-25